createdAt,value
2022-09-21T00:07:24.000Z,7.68
2022-09-21T00:12:25.000Z,7.77
2022-09-21T00:17:24.000Z,7.72
2022-09-21T00:22:24.000Z,7.99
2022-09-21T00:27:24.000Z,7.82
2022-09-21T00:32:24.000Z,7.88
2022-09-21T00:37:24.000Z,8.45
2022-09-21T00:42:25.000Z,8.86
2022-09-21T00:47:24.000Z,9.44
2022-09-21T00:52:24.000Z,9.8
2022-09-21T00:57:24.000Z,10.54
2022-09-21T01:02:25.000Z,10.95
2022-09-21T01:07:24.000Z,10.96
2022-09-21T01:12:24.000Z,11.18
2022-09-21T01:17:24.000Z,10.64
2022-09-21T01:22:25.000Z,10.74
2022-09-21T01:27:24.000Z,10.29
2022-09-21T01:32:25.000Z,10.43
2022-09-21T01:37:25.000Z,10.13
2022-09-21T01:42:25.000Z,10.76
2022-09-21T01:47:24.000Z,10.62
2022-09-21T01:52:25.000Z,10.5
2022-09-21T01:57:25.000Z,11.99
2022-09-21T02:02:25.000Z,12.11
2022-09-21T02:07:24.000Z,11.03
2022-09-21T02:12:25.000Z,11.45
2022-09-21T02:17:24.000Z,10.76
2022-09-21T02:22:24.000Z,10.54
2022-09-21T02:32:25.000Z,10.83
2022-09-21T02:37:25.000Z,11.34
2022-09-21T02:42:25.000Z,11.53
2022-09-21T02:47:24.000Z,12.07
2022-09-21T02:52:24.000Z,11.35
2022-09-21T02:57:24.000Z,11.68
2022-09-21T03:02:24.000Z,14.74
2022-09-21T03:07:25.000Z,11.89
2022-09-21T03:12:24.000Z,11.29
2022-09-21T03:17:24.000Z,11.02
2022-09-21T03:22:24.000Z,11.28
2022-09-21T03:27:24.000Z,10.78
2022-09-21T03:32:24.000Z,10.72
2022-09-21T03:37:24.000Z,11.18
2022-09-21T03:42:24.000Z,12.63
2022-09-21T03:47:24.000Z,12.62
2022-09-21T03:52:24.000Z,11.76
2022-09-21T03:57:24.000Z,12.07
2022-09-21T04:02:24.000Z,12.07
2022-09-21T04:07:25.000Z,11.54
2022-09-21T04:12:24.000Z,11.32
2022-09-21T04:17:24.000Z,12.32
2022-09-21T04:22:25.000Z,12.04
2022-09-21T04:27:24.000Z,12.18
2022-09-21T04:32:24.000Z,11.87
2022-09-21T04:37:24.000Z,11.69
2022-09-21T04:42:25.000Z,12.47
2022-09-21T04:47:24.000Z,13.71
2022-09-21T04:52:24.000Z,14.84
2022-09-21T04:57:24.000Z,16.32
2022-09-21T05:02:25.000Z,16.32
2022-09-21T05:42:23.000Z,15.9
2022-09-21T05:47:24.000Z,13.39
2022-09-21T05:52:25.000Z,14.5
2022-09-21T05:57:25.000Z,15.4
2022-09-21T06:02:24.000Z,14.73
2022-09-21T06:07:24.000Z,13.47
2022-09-21T06:12:25.000Z,10.64
2022-09-21T06:17:25.000Z,10.55
2022-09-21T06:22:25.000Z,10.25
2022-09-21T06:27:25.000Z,10.14
2022-09-21T06:32:25.000Z,9.71
2022-09-21T06:37:24.000Z,10.27
2022-09-21T06:47:25.000Z,9.19
2022-09-21T06:52:24.000Z,8.78
2022-09-21T06:57:24.000Z,8.75
2022-09-21T07:02:24.000Z,8.17
2022-09-21T07:07:24.000Z,7.92
2022-09-21T07:12:24.000Z,8.24
2022-09-21T07:17:25.000Z,9.68
2022-09-21T07:22:24.000Z,9.43
2022-09-21T07:27:24.000Z,8.67
2022-09-21T07:32:25.000Z,9.16
2022-09-21T07:37:24.000Z,9.17
2022-09-21T07:42:24.000Z,7.94
2022-09-21T07:47:24.000Z,7.29
2022-09-21T07:52:24.000Z,5.91
2022-09-21T08:02:24.000Z,7.61
2022-09-21T08:07:24.000Z,6.99
2022-09-21T08:17:24.000Z,7.63
2022-09-21T08:22:24.000Z,7.74
2022-09-21T08:27:24.000Z,7.77
2022-09-21T08:32:24.000Z,7.85
2022-09-21T08:37:24.000Z,7.43
2022-09-21T08:42:24.000Z,6.47
2022-09-21T08:47:24.000Z,6.37
2022-09-21T08:52:24.000Z,8.67
2022-09-21T08:57:24.000Z,8.06
2022-09-21T09:02:24.000Z,7.66
2022-09-21T09:07:24.000Z,6.67
2022-09-21T09:12:24.000Z,7.21
2022-09-21T09:17:25.000Z,7.16
2022-09-21T09:22:24.000Z,6.52
2022-09-21T09:27:24.000Z,6.28
2022-09-21T09:32:24.000Z,6.21
2022-09-21T09:37:24.000Z,6.33
2022-09-21T09:42:24.000Z,6.42
2022-09-21T09:47:24.000Z,6.41
2022-09-21T09:52:25.000Z,6.28
2022-09-21T09:57:24.000Z,6.33
2022-09-21T10:02:24.000Z,6.18
2022-09-21T10:07:25.000Z,5.9
2022-09-21T10:12:24.000Z,5.56
2022-09-21T10:17:25.000Z,5.67
2022-09-21T10:22:24.000Z,5.55
2022-09-21T10:27:25.000Z,4.9
2022-09-21T10:32:24.000Z,4.54
2022-09-21T10:37:25.000Z,4.56
2022-09-21T10:42:24.000Z,4.54
2022-09-21T10:52:24.000Z,6.07
2022-09-21T10:57:25.000Z,7.59
2022-09-21T11:02:24.000Z,10.78
2022-09-21T11:07:25.000Z,5.67
2022-09-21T11:12:24.000Z,4.63
2022-09-21T11:17:24.000Z,3.39
2022-09-21T11:22:24.000Z,3.44
2022-09-21T11:27:24.000Z,3.65
2022-09-21T11:32:24.000Z,3.2
2022-09-21T11:37:24.000Z,3.7
2022-09-21T11:42:24.000Z,4.03
2022-09-21T11:47:24.000Z,4.6
2022-09-21T11:52:25.000Z,4.69
2022-09-21T11:57:25.000Z,3.55
2022-09-21T12:02:24.000Z,3.24
2022-09-21T12:07:24.000Z,3.21
2022-09-21T12:12:25.000Z,3.09
2022-09-21T12:17:24.000Z,2.94
2022-09-21T12:22:24.000Z,3.18
2022-09-21T12:27:24.000Z,4.08
2022-09-21T12:32:25.000Z,4.3
2022-09-21T12:37:24.000Z,4.46
2022-09-21T12:42:24.000Z,5.77
2022-09-21T12:47:25.000Z,6.5
2022-09-21T12:52:24.000Z,5.98
2022-09-21T12:57:24.000Z,5.79
2022-09-21T13:02:25.000Z,5.92
2022-09-21T13:07:24.000Z,6.38
2022-09-21T13:12:25.000Z,8.32
2022-09-21T13:17:25.000Z,6.41
2022-09-21T13:22:24.000Z,6.2
2022-09-21T13:27:24.000Z,7.11
2022-09-21T13:32:24.000Z,6.86
2022-09-21T13:37:25.000Z,6.71
2022-09-21T13:42:24.000Z,8.59
2022-09-21T13:47:24.000Z,9.41
2022-09-21T13:52:24.000Z,9.84
2022-09-21T13:57:24.000Z,10.07
2022-09-21T14:02:25.000Z,9.03
2022-09-21T14:07:25.000Z,8.76
2022-09-21T14:12:24.000Z,7.09
2022-09-21T14:17:24.000Z,6.91
2022-09-21T14:22:24.000Z,8.04
2022-09-21T14:27:24.000Z,9.05
2022-09-21T14:32:24.000Z,8.67
2022-09-21T14:37:24.000Z,8
2022-09-21T14:47:25.000Z,8.67
2022-09-21T14:52:24.000Z,9.02
2022-09-21T14:57:24.000Z,8.84
2022-09-21T15:02:24.000Z,7.45
2022-09-21T15:07:24.000Z,7.87
2022-09-21T15:12:24.000Z,8.57
2022-09-21T15:17:25.000Z,6.77
2022-09-21T15:22:24.000Z,6.85
2022-09-21T15:27:24.000Z,7.21
2022-09-21T15:32:25.000Z,7.73
2022-09-21T15:37:24.000Z,8.87
2022-09-21T15:42:24.000Z,9.42
2022-09-21T15:47:25.000Z,6.63
2022-09-21T15:52:24.000Z,7.24
2022-09-21T15:57:25.000Z,7.2
2022-09-21T16:02:25.000Z,6.8
2022-09-21T16:07:25.000Z,6.7
2022-09-21T16:12:24.000Z,7.32
2022-09-21T16:17:24.000Z,7.3
2022-09-21T16:22:25.000Z,8.5
2022-09-21T16:27:24.000Z,8.13
2022-09-21T16:32:25.000Z,9.1
2022-09-21T16:37:24.000Z,12.77
2022-09-21T16:42:24.000Z,8.26
2022-09-21T16:47:24.000Z,7.49
2022-09-21T16:52:24.000Z,5.44
2022-09-21T16:57:24.000Z,3.83
2022-09-21T17:02:24.000Z,3.51
2022-09-21T17:07:24.000Z,4.21
2022-09-21T17:12:25.000Z,4.3
2022-09-21T17:17:25.000Z,4.47
2022-09-21T17:22:25.000Z,5.32
2022-09-21T17:27:24.000Z,4.58
2022-09-21T17:32:25.000Z,6.4
2022-09-21T17:37:24.000Z,7
2022-09-21T17:42:24.000Z,5.42
2022-09-21T17:47:24.000Z,5.41
2022-09-21T17:52:24.000Z,5.88
2022-09-21T17:57:25.000Z,6.9
2022-09-21T18:02:24.000Z,6.87
2022-09-21T18:07:24.000Z,5.88
2022-09-21T18:12:24.000Z,4.93
2022-09-21T18:22:25.000Z,4.69
2022-09-21T18:27:24.000Z,6
2022-09-21T18:32:24.000Z,5.14
2022-09-21T18:37:24.000Z,4.69
2022-09-21T18:42:24.000Z,7.11
2022-09-21T18:47:25.000Z,4.38
2022-09-21T18:52:24.000Z,4.53
2022-09-21T18:57:24.000Z,4.41
2022-09-21T19:02:25.000Z,4.69
2022-09-21T19:07:24.000Z,4.62
2022-09-21T19:12:24.000Z,4.88
2022-09-21T19:17:25.000Z,4.66
2022-09-21T19:22:24.000Z,4.48
2022-09-21T19:27:24.000Z,4.65
2022-09-21T19:32:24.000Z,5.26
2022-09-21T19:37:24.000Z,4.19
2022-09-21T19:42:25.000Z,4.37
2022-09-21T19:47:24.000Z,4.3
2022-09-21T19:52:25.000Z,4.22
2022-09-21T19:57:24.000Z,4.18
2022-09-21T20:02:24.000Z,6.41
2022-09-21T20:07:24.000Z,4.72
2022-09-21T20:12:25.000Z,4.74
2022-09-21T20:17:24.000Z,4.76
2022-09-21T20:22:25.000Z,4.26
2022-09-21T20:27:25.000Z,7.42
2022-09-21T20:32:24.000Z,4.59
2022-09-21T20:37:24.000Z,4.23
2022-09-21T20:42:24.000Z,4.76
2022-09-21T20:47:25.000Z,4.01
2022-09-21T20:52:24.000Z,4
2022-09-21T20:57:24.000Z,3.8
2022-09-21T21:02:24.000Z,3.96
2022-09-21T21:07:24.000Z,4.06
2022-09-21T21:12:24.000Z,4.07
2022-09-21T21:17:24.000Z,3.76
2022-09-21T21:22:24.000Z,3.9
2022-09-21T21:27:24.000Z,3.98
2022-09-21T21:32:25.000Z,4.32
2022-09-21T21:37:24.000Z,4.23
2022-09-21T21:42:24.000Z,4.19
2022-09-21T21:47:24.000Z,4.04
2022-09-21T21:52:24.000Z,4.07
2022-09-21T21:57:24.000Z,9.6
2022-09-21T22:02:24.000Z,4.09
2022-09-21T22:07:24.000Z,3.96
2022-09-21T22:12:24.000Z,4.11
2022-09-21T22:17:24.000Z,4.02
2022-09-21T22:22:24.000Z,4.03
2022-09-21T22:27:24.000Z,4.05
2022-09-21T22:32:24.000Z,4.23
2022-09-21T22:37:24.000Z,4.7
2022-09-21T22:42:25.000Z,4.04
2022-09-21T22:47:25.000Z,4.13
2022-09-21T22:52:25.000Z,4.02
2022-09-21T22:57:24.000Z,4.03
2022-09-21T23:02:24.000Z,4.09
2022-09-21T23:07:24.000Z,4.4
2022-09-21T23:12:25.000Z,5.54
2022-09-21T23:17:24.000Z,4.58
2022-09-21T23:22:24.000Z,4.24
2022-09-21T23:27:24.000Z,4
2022-09-21T23:32:24.000Z,3.98
2022-09-21T23:37:24.000Z,4.1
2022-09-21T23:42:24.000Z,4.12
2022-09-21T23:47:24.000Z,3.9
2022-09-21T23:52:24.000Z,3.92
2022-09-21T23:57:24.000Z,3.78
